Angler Guide Weather for Port Colborne -
Port Colborne, Ontario Current Weather Conditions
Enter your "Place, State", US Zip Code or ICAO:  
Forecast Information Radar Information
Port Colborne, Ontario, Canada  Lat: 45.85N, Lon: 79.25W
ICAO Used: CYQA
Current Conditions
Updated:
Sun & Moon Information:
Temp: N/A
Humidity: N/A
Wind Speed: N/A
Barometer: N/A
Dewpoint: N/A
Heat Index: N/A
Wind Chill: N/A
Civil Twilight: 7:07 AM EDT
Moonrise: 7:14 AM EDT Moon Phase:
New Moon
New Moon
Moonset: 6:47 PM EDT
Sunrise: 7:37 AM EDT
Sunset: 6:24 PM EDT
Civil Twilight: 6:54 PM EDT
Forecast for Port Colborne, ON:
(Forecast based on TAF for )
0339 PM EDT MON NOV 06 2006
  
AFTERNOONEVENINGOVERNIGHT
PARTLY CLOUDYPARTLY CLOUDYPARTLY CLOUDY
Partly
Cloudy
Partly
Cloudy
Partly
Cloudy
TAF based forecast:
Dated: 0339 PM EDT MON NOV 06 2006
Afternoon...Partly cloudy with winds from the south at 12 mph.
Evening...Partly cloudy with winds from the south at 12 mph.
Overnight...Partly cloudy with winds from the south at 12 mph.
Original Encoded TAF:
Dated: 0339 PM EDT MON NOV 06 2006
2006/11/06 19:39
CYQA 061939Z 062003 19010KT P6SM SCT050=




Powered by Angler Guide.com
Copyright 2007, all rights reserved.